createdAt,value
2018-12-24T00:01:42.536Z,-80
2018-12-24T00:04:33.953Z,-80
2018-12-24T00:07:16.353Z,-80
2018-12-24T00:10:07.695Z,-80
2018-12-24T00:13:10.686Z,-80
2018-12-24T00:16:02.045Z,-80
2018-12-24T00:18:45.746Z,-80
2018-12-24T00:21:37.097Z,-80
2018-12-24T00:24:20.678Z,-79
2018-12-24T00:27:03.157Z,-80
2018-12-24T00:29:46.781Z,-79
2018-12-24T00:32:38.160Z,-80
2018-12-24T00:35:22.551Z,-80
2018-12-24T00:38:06.155Z,-80
2018-12-24T00:40:57.500Z,-80
2018-12-24T00:43:41.360Z,-80
2018-12-24T00:46:32.713Z,-81
2018-12-24T00:49:17.045Z,-81
2018-12-24T00:52:08.387Z,-81
2018-12-24T00:54:52.509Z,-80
2018-12-24T00:57:43.849Z,-79
2018-12-24T01:00:27.574Z,-79
2018-12-24T01:03:18.951Z,-79
2018-12-24T01:06:03.052Z,-81
2018-12-24T01:08:46.871Z,-81
2018-12-24T01:11:38.244Z,-80
2018-12-24T01:14:21.985Z,-80
2018-12-24T01:17:13.427Z,-80
2018-12-24T01:19:57.276Z,-80
2018-12-24T01:22:48.710Z,-80
2018-12-24T01:25:32.554Z,-79
2018-12-24T01:28:16.246Z,-79
2018-12-24T01:31:07.702Z,-79
2018-12-24T01:33:51.695Z,-81
2018-12-24T01:36:43.069Z,-80
2018-12-24T01:39:46.375Z,-80
2018-12-24T01:42:37.714Z,-80
2018-12-24T01:45:21.696Z,-80
2018-12-24T01:48:13.145Z,-79
2018-12-24T01:50:57.259Z,-79
2018-12-24T01:56:58.864Z,-79
2018-12-24T01:59:42.723Z,-79
2018-12-24T02:02:34.062Z,-79
2018-12-24T02:05:18.280Z,-79
2018-12-24T02:08:10.030Z,-79
2018-12-24T02:10:54.592Z,-80
2018-12-24T02:13:45.937Z,-79
2018-12-24T02:16:29.648Z,-79
2018-12-24T02:19:21.023Z,-80
2018-12-24T02:22:12.664Z,-79
2018-12-24T02:24:57.963Z,-80
2018-12-24T02:27:41.944Z,-79
2018-12-24T02:30:33.302Z,-80
2018-12-24T02:33:17.241Z,-79
2018-12-24T02:36:08.616Z,-80
2018-12-24T02:38:52.417Z,-80
2018-12-24T02:41:36.767Z,-79
2018-12-24T02:44:28.213Z,-79
2018-12-24T02:47:31.484Z,-79
2018-12-24T02:50:22.817Z,-79
2018-12-24T02:53:11.584Z,-79
2018-12-24T02:56:02.965Z,-81
2018-12-24T02:58:46.602Z,-81
2018-12-24T03:01:37.979Z,-79
2018-12-24T03:04:21.791Z,-80
2018-12-24T03:07:13.159Z,-79
2018-12-24T03:09:57.482Z,-80
2018-12-24T03:12:48.837Z,-80
2018-12-24T03:15:52.390Z,-80
2018-12-24T03:18:43.893Z,-80
2018-12-24T03:21:28.226Z,-80
2018-12-24T03:24:19.548Z,-79
2018-12-24T03:27:03.969Z,-79
2018-12-24T03:29:55.300Z,-81
2018-12-24T03:32:39.304Z,-81
2018-12-24T03:35:30.634Z,-81
2018-12-24T03:38:33.710Z,-80
2018-12-24T03:41:25.056Z,-80
2018-12-24T03:44:08.803Z,-80
2018-12-24T03:47:00.140Z,-80
2018-12-24T03:50:03.110Z,-80
2018-12-24T03:52:54.452Z,-80
2018-12-24T03:55:57.054Z,-80
2018-12-24T03:58:48.424Z,-80
2018-12-24T04:01:51.477Z,-81
2018-12-24T04:04:42.857Z,-80
2018-12-24T04:07:26.571Z,-80
2018-12-24T04:10:17.927Z,-80
2018-12-24T04:13:22.591Z,-80
2018-12-24T04:16:13.612Z,-80
2018-12-24T04:19:16.746Z,-80
2018-12-24T04:22:08.085Z,-79
2018-12-24T04:25:11.128Z,-80
2018-12-24T04:27:55.550Z,-79
2018-12-24T04:30:39.120Z,-79
2018-12-24T04:33:30.443Z,-79
2018-12-24T04:36:14.464Z,-80
2018-12-24T04:39:06.644Z,-79
2018-12-24T04:41:50.372Z,-80
2018-12-24T04:44:41.707Z,-79
2018-12-24T04:47:26.019Z,-79
2018-12-24T04:50:17.360Z,-79
2018-12-24T04:53:06.580Z,-79
2018-12-24T04:55:57.921Z,-79
2018-12-24T04:59:00.934Z,-80
2018-12-24T05:01:52.302Z,-80
2018-12-24T05:04:36.389Z,-79
2018-12-24T05:07:27.754Z,-81
2018-12-24T05:10:12.246Z,-80
2018-12-24T05:13:03.619Z,-81
2018-12-24T05:15:47.323Z,-81
2018-12-24T05:18:38.750Z,-80
2018-12-24T05:21:41.893Z,-80
2018-12-24T05:24:33.258Z,-80
2018-12-24T05:27:36.436Z,-80
2018-12-24T05:30:27.809Z,-79
2018-12-24T05:33:11.567Z,-80
2018-12-24T05:36:02.902Z,-80
2018-12-24T05:38:47.213Z,-80
2018-12-24T05:41:38.552Z,-80
2018-12-24T05:44:41.903Z,-80
2018-12-24T05:47:33.226Z,-80
2018-12-24T05:50:36.357Z,-80
2018-12-24T05:53:27.686Z,-80
2018-12-24T05:56:31.151Z,-80
2018-12-24T05:59:22.771Z,-80
2018-12-24T06:02:06.438Z,-79
2018-12-24T06:04:57.899Z,-80
2018-12-24T06:07:41.803Z,-80
2018-12-24T06:10:33.179Z,-80
2018-12-24T06:13:35.785Z,-80
2018-12-24T06:16:27.139Z,-80
2018-12-24T06:19:15.368Z,-79
2018-12-24T06:22:06.742Z,-79
2018-12-24T06:24:50.744Z,-81
2018-12-24T06:27:34.403Z,-80
2018-12-24T06:30:16.794Z,-80
2018-12-24T06:33:00.811Z,-79
2018-12-24T06:35:52.210Z,-79
2018-12-24T06:38:36.077Z,-80
2018-12-24T06:41:27.471Z,-80
2018-12-24T06:44:11.133Z,-80
2018-12-24T06:46:54.769Z,-79
2018-12-24T06:49:46.092Z,-79
2018-12-24T06:52:35.883Z,-79
2018-12-24T06:55:27.230Z,-81
2018-12-24T06:58:30.446Z,-79
2018-12-24T07:01:21.823Z,-79
2018-12-24T07:04:05.558Z,-81
2018-12-24T07:06:57.659Z,-82
2018-12-24T07:09:42.804Z,-81
2018-12-24T07:12:35.158Z,-79
2018-12-24T07:15:38.172Z,-79
2018-12-24T07:18:30.150Z,-79
2018-12-24T07:21:13.498Z,-81
2018-12-24T07:24:05.061Z,-80
2018-12-24T07:27:09.440Z,-80
2018-12-24T07:30:01.793Z,-82
2018-12-24T07:33:05.647Z,-82
2018-12-24T07:35:58.063Z,-81
2018-12-24T07:38:43.537Z,-82
2018-12-24T07:41:35.773Z,-81
2018-12-24T07:44:24.195Z,-81
2018-12-24T07:47:13.293Z,-81
2018-12-24T07:50:16.646Z,-81
2018-12-24T07:53:08.871Z,-81
2018-12-24T07:56:12.722Z,-81
2018-12-24T07:59:05.115Z,-81
2018-12-24T08:01:49.916Z,-81
2018-12-24T08:04:41.912Z,-80
2018-12-24T08:07:45.437Z,-81
2018-12-24T08:10:37.838Z,-82
2018-12-24T08:13:40.921Z,-82
2018-12-24T08:16:33.400Z,-80
2018-12-24T08:19:18.431Z,-83
2018-12-24T08:25:38.668Z,-82
2018-12-24T08:28:22.260Z,-82
2018-12-24T08:31:07.524Z,-83
2018-12-24T08:33:59.881Z,-82
2018-12-24T08:36:51.658Z,-82
2018-12-24T08:39:44.032Z,-83
2018-12-24T08:42:29.432Z,-82
2018-12-24T08:45:22.040Z,-82
2018-12-24T08:48:06.507Z,-82
2018-12-24T08:51:46.424Z,-82
2018-12-24T08:54:29.720Z,-83
2018-12-24T08:57:13.493Z,-83
2018-12-24T09:00:04.593Z,-83
2018-12-24T09:02:48.365Z,-82
2018-12-24T09:05:39.279Z,-81
2018-12-24T09:08:23.178Z,-82
2018-12-24T09:11:14.118Z,-81
2018-12-24T09:13:57.970Z,-81
2018-12-24T09:16:48.878Z,-80
2018-12-24T09:19:32.831Z,-80
2018-12-24T09:22:23.734Z,-80
2018-12-24T09:25:07.602Z,-80
2018-12-24T09:27:51.443Z,-80
2018-12-24T09:30:35.694Z,-81
2018-12-24T09:33:20.771Z,-80
2018-12-24T09:36:11.781Z,-80
2018-12-24T09:38:59.601Z,-80
2018-12-24T09:41:50.519Z,-81
2018-12-24T09:44:33.794Z,-80
2018-12-24T09:47:24.681Z,-80
2018-12-24T09:50:07.998Z,-80
2018-12-24T09:52:59.026Z,-80
2018-12-24T09:55:42.798Z,-83
2018-12-24T09:58:26.368Z,-82
2018-12-24T10:01:17.485Z,-81
2018-12-24T10:04:04.205Z,-82
2018-12-24T10:10:06.149Z,-81
2018-12-24T10:12:57.056Z,-81
2018-12-24T10:15:41.096Z,-82
2018-12-24T10:18:32.021Z,-82
2018-12-24T10:21:15.552Z,-83
2018-12-24T10:24:06.452Z,-81
2018-12-24T10:26:49.799Z,-82
2018-12-24T10:29:40.746Z,-82
2018-12-24T10:32:24.781Z,-81
2018-12-24T10:35:15.727Z,-81
2018-12-24T10:37:59.330Z,-81
2018-12-24T10:40:55.927Z,-81
2018-12-24T10:43:39.573Z,-81
2018-12-24T10:46:30.566Z,-82
2018-12-24T10:49:14.117Z,-83
2018-12-24T10:52:05.030Z,-82
2018-12-24T10:54:49.172Z,-83
2018-12-24T10:57:40.091Z,-83
2018-12-24T11:00:23.826Z,-82
2018-12-24T11:03:14.738Z,-81
2018-12-24T11:05:58.694Z,-82
2018-12-24T11:08:49.609Z,-81
2018-12-24T11:11:33.582Z,-81
2018-12-24T11:14:24.508Z,-81
2018-12-24T11:17:27.022Z,-80
2018-12-24T11:20:17.942Z,-80
2018-12-24T11:23:20.134Z,-80
2018-12-24T11:26:11.080Z,-82
2018-12-24T11:28:54.906Z,-81
2018-12-24T11:31:45.861Z,-80
2018-12-24T11:34:29.068Z,-80
2018-12-24T11:37:20.092Z,-79
2018-12-24T11:40:03.465Z,-83
2018-12-24T11:42:54.442Z,-80
2018-12-24T11:45:37.912Z,-80
2018-12-24T11:48:28.814Z,-80
2018-12-24T11:51:12.782Z,-80
2018-12-24T11:54:03.698Z,-80
2018-12-24T11:56:47.574Z,-80
2018-12-24T11:59:38.570Z,-80
2018-12-24T12:02:22.235Z,-80
2018-12-24T12:05:13.140Z,-81
2018-12-24T12:07:57.106Z,-78
2018-12-24T12:10:48.022Z,-81
2018-12-24T12:13:31.569Z,-78
2018-12-24T12:16:22.601Z,-79
2018-12-24T12:19:06.113Z,-78
2018-12-24T12:21:50.100Z,-78
2018-12-24T12:24:41.017Z,-77
2018-12-24T12:27:24.523Z,-77
2018-12-24T12:30:15.431Z,-77
2018-12-24T12:32:59.630Z,-77
2018-12-24T12:35:50.534Z,-77
2018-12-24T12:38:34.111Z,-77
2018-12-24T12:41:25.471Z,-78
2018-12-24T12:44:09.399Z,-76
2018-12-24T12:47:00.336Z,-77
2018-12-24T12:49:44.135Z,-76
2018-12-24T12:52:28.519Z,-77
2018-12-24T12:55:19.461Z,-77
2018-12-24T12:58:03.454Z,-79
2018-12-24T13:00:54.416Z,-78
2018-12-24T13:03:38.091Z,-78
2018-12-24T13:06:30.154Z,-80
2018-12-24T13:09:14.399Z,-80
2018-12-24T13:12:05.498Z,-80
2018-12-24T13:14:49.800Z,-80
2018-12-24T13:17:41.488Z,-80
2018-12-24T13:20:25.831Z,-79
2018-12-24T13:23:16.827Z,-79
2018-12-24T13:26:01.168Z,-79
2018-12-24T13:28:45.286Z,-80
2018-12-24T13:31:36.198Z,-80
2018-12-24T13:34:20.595Z,-79
2018-12-24T13:37:11.508Z,-79
2018-12-24T13:39:54.748Z,-81
2018-12-24T13:42:45.669Z,-80
2018-12-24T13:45:29.433Z,-81
2018-12-24T13:48:20.392Z,-79
2018-12-24T13:51:03.812Z,-78
2018-12-24T13:53:47.260Z,-77
2018-12-24T13:56:38.175Z,-78
2018-12-24T13:59:23.595Z,-78
2018-12-24T14:02:16.549Z,-77
2018-12-24T14:05:09.194Z,-78
2018-12-24T14:08:00.345Z,-78
2018-12-24T14:10:43.775Z,-78
2018-12-24T14:13:34.682Z,-79
2018-12-24T14:16:19.776Z,-79
2018-12-24T14:19:10.678Z,-79
2018-12-24T14:21:53.985Z,-78
2018-12-24T14:24:44.929Z,-79
2018-12-24T14:27:28.683Z,-81
2018-12-24T14:30:19.632Z,-80
2018-12-24T14:33:22.334Z,-80
2018-12-24T14:36:13.285Z,-80
2018-12-24T14:38:57.027Z,-81
2018-12-24T14:41:40.673Z,-83
2018-12-24T14:44:24.725Z,-82
2018-12-24T14:47:08.290Z,-82
2018-12-24T14:49:59.197Z,-81
2018-12-24T14:52:42.447Z,-81
2018-12-24T14:55:33.366Z,-81
2018-12-24T14:58:17.147Z,-80
2018-12-24T15:01:08.061Z,-79
2018-12-24T15:03:51.291Z,-80
2018-12-24T15:06:42.201Z,-80
2018-12-24T15:09:25.763Z,-81
2018-12-24T15:12:16.681Z,-82
2018-12-24T15:15:00.712Z,-82
2018-12-24T15:17:51.623Z,-82
2018-12-24T15:20:35.642Z,-82
2018-12-24T15:23:26.584Z,-82
2018-12-24T15:26:10.435Z,-81
2018-12-24T15:28:53.880Z,-81
2018-12-24T15:31:44.785Z,-81
2018-12-24T15:34:28.906Z,-81
2018-12-24T15:37:19.824Z,-80
2018-12-24T15:40:03.097Z,-81
2018-12-24T15:42:47.196Z,-80
2018-12-24T15:45:38.190Z,-81
2018-12-24T15:48:22.310Z,-80
2018-12-24T15:51:13.260Z,-80
2018-12-24T15:53:57.210Z,-80
2018-12-24T15:56:48.134Z,-80
2018-12-24T15:59:37.016Z,-78
2018-12-24T16:02:27.914Z,-78
2018-12-24T16:05:11.468Z,-79
2018-12-24T16:08:02.376Z,-78
2018-12-24T16:10:46.436Z,-77
2018-12-24T16:13:37.379Z,-78
2018-12-24T16:16:21.315Z,-78
2018-12-24T16:19:12.252Z,-78
2018-12-24T16:21:55.999Z,-77
2018-12-24T16:24:46.933Z,-77
2018-12-24T16:27:30.491Z,-77
2018-12-24T16:30:21.423Z,-77
2018-12-24T16:33:05.239Z,-77
2018-12-24T16:35:56.243Z,-76
2018-12-24T16:38:28.183Z,-78
2018-12-24T16:41:19.088Z,-78
2018-12-24T16:44:02.899Z,-79
2018-12-24T16:46:59.315Z,-80
2018-12-24T16:49:58.622Z,-79
2018-12-24T16:52:49.625Z,-82
2018-12-24T16:55:33.413Z,-79
2018-12-24T16:58:24.388Z,-81
2018-12-24T17:01:08.202Z,-81
2018-12-24T17:03:59.135Z,-79
2018-12-24T17:06:42.914Z,-80
2018-12-24T17:09:33.853Z,-80
2018-12-24T17:12:17.873Z,-80
2018-12-24T17:15:08.816Z,-79
2018-12-24T17:17:52.616Z,-80
2018-12-24T17:20:43.547Z,-80
2018-12-24T17:23:27.518Z,-81
2018-12-24T17:26:18.428Z,-82
2018-12-24T17:29:21.410Z,-80
2018-12-24T17:32:12.312Z,-81
2018-12-24T17:34:56.171Z,-80
2018-12-24T17:37:47.092Z,-80
2018-12-24T17:40:31.120Z,-81
2018-12-24T17:43:14.673Z,-80
2018-12-24T17:45:57.913Z,-81
2018-12-24T17:48:48.819Z,-82
2018-12-24T17:51:37.899Z,-81
2018-12-24T17:54:28.844Z,-81
2018-12-24T17:57:12.547Z,-81
2018-12-24T18:00:03.562Z,-81
2018-12-24T18:02:46.829Z,-81
2018-12-24T18:05:37.891Z,-81
2018-12-24T18:08:21.899Z,-80
2018-12-24T18:11:12.839Z,-80
2018-12-24T18:13:56.650Z,-80
2018-12-24T18:16:58.375Z,-80
2018-12-24T18:19:50.711Z,-82
2018-12-24T18:22:35.828Z,-82
2018-12-24T18:25:26.853Z,-81
2018-12-24T18:28:10.562Z,-81
2018-12-24T18:31:01.508Z,-83
2018-12-24T18:33:44.693Z,-82
2018-12-24T18:36:35.645Z,-81
2018-12-24T18:39:19.607Z,-83
2018-12-24T18:42:10.585Z,-82
2018-12-24T18:44:54.436Z,-82
2018-12-24T18:47:45.380Z,-81
2018-12-24T18:50:29.360Z,-82
2018-12-24T18:53:20.306Z,-82
2018-12-24T18:56:21.251Z,-82
2018-12-24T18:59:12.171Z,-82
2018-12-24T19:01:56.123Z,-81
2018-12-24T19:04:47.107Z,-82
2018-12-24T19:07:30.875Z,-82
2018-12-24T19:10:22.183Z,-82
2018-12-24T19:13:06.048Z,-82
2018-12-24T19:15:57.011Z,-82
2018-12-24T19:18:41.123Z,-82
2018-12-24T19:21:32.043Z,-82
2018-12-24T19:24:20.153Z,-82
2018-12-24T19:27:11.097Z,-82
2018-12-24T19:29:54.887Z,-82
2018-12-24T19:32:45.845Z,-81
2018-12-24T19:35:29.847Z,-82
2018-12-24T19:38:01.819Z,-81
2018-12-24T19:40:45.163Z,-81
2018-12-24T19:43:28.539Z,-81
2018-12-24T19:46:00.534Z,-82
2018-12-24T19:48:44.469Z,-81
2018-12-24T19:51:35.377Z,-81
2018-12-24T19:54:19.351Z,-81
2018-12-24T19:57:10.536Z,-81
2018-12-24T19:59:54.247Z,-81
2018-12-24T20:02:45.178Z,-81
2018-12-24T20:05:28.989Z,-82
2018-12-24T20:08:12.218Z,-81
2018-12-24T20:11:03.130Z,-81
2018-12-24T20:13:46.478Z,-81
2018-12-24T20:16:30.418Z,-81
2018-12-24T20:19:21.367Z,-81
2018-12-24T20:22:05.076Z,-81
2018-12-24T20:24:56.001Z,-81
2018-12-24T20:27:39.896Z,-81
2018-12-24T20:30:30.845Z,-81
2018-12-24T20:33:14.466Z,-82
2018-12-24T20:36:05.414Z,-83
2018-12-24T20:38:49.446Z,-81
2018-12-24T20:41:40.388Z,-81
2018-12-24T20:44:24.876Z,-82
2018-12-24T20:47:15.873Z,-81
2018-12-24T20:49:59.745Z,-81
2018-12-24T20:52:50.649Z,-82
2018-12-24T20:55:34.620Z,-81
2018-12-24T20:58:26.536Z,-80
2018-12-24T21:01:10.562Z,-79
2018-12-24T21:04:02.645Z,-81
2018-12-24T21:06:46.307Z,-81
2018-12-24T21:09:37.860Z,-80
2018-12-24T21:12:22.814Z,-80
2018-12-24T21:15:15.476Z,-81
2018-12-24T21:17:59.261Z,-79
2018-12-24T21:20:51.066Z,-80
2018-12-24T21:23:33.975Z,-80
2018-12-24T21:26:25.962Z,-79
2018-12-24T21:29:09.579Z,-79
2018-12-24T21:32:01.659Z,-78
2018-12-24T21:34:45.649Z,-78
2018-12-24T21:37:29.599Z,-80
2018-12-24T21:40:21.618Z,-80
2018-12-24T21:43:05.636Z,-81
2018-12-24T21:45:56.984Z,-82
2018-12-24T21:48:40.536Z,-81
2018-12-24T21:51:33.308Z,-80
2018-12-24T21:54:18.211Z,-80
2018-12-24T21:57:09.557Z,-80
2018-12-24T21:59:54.200Z,-79
2018-12-24T22:02:45.185Z,-79
2018-12-24T22:05:28.991Z,-80
2018-12-24T22:08:19.952Z,-80
2018-12-24T22:11:04.860Z,-80
2018-12-24T22:13:48.848Z,-80
2018-12-24T22:16:33.997Z,-80
2018-12-24T22:19:25.102Z,-80
2018-12-24T22:22:09.093Z,-80
2018-12-24T22:25:02.625Z,-79
2018-12-24T22:27:46.288Z,-79
2018-12-24T22:34:07.413Z,-80
2018-12-24T22:36:58.427Z,-79
2018-12-24T22:39:42.359Z,-80
2018-12-24T22:42:34.465Z,-80
2018-12-24T22:45:24.613Z,-79
2018-12-24T22:48:16.557Z,-79
2018-12-24T22:51:00.185Z,-79
2018-12-24T22:53:51.188Z,-79
2018-12-24T22:56:34.971Z,-79
2018-12-24T22:59:25.932Z,-79
2018-12-24T23:02:10.010Z,-80
2018-12-24T23:05:01.091Z,-79
2018-12-24T23:07:44.471Z,-80
2018-12-24T23:10:35.421Z,-79
2018-12-24T23:13:19.639Z,-79
2018-12-24T23:16:11.914Z,-79
2018-12-24T23:18:55.816Z,-79
2018-12-24T23:21:48.083Z,-79
2018-12-24T23:24:32.650Z,-80
2018-12-24T23:27:23.636Z,-80
2018-12-24T23:30:08.700Z,-79
2018-12-24T23:33:00.791Z,-79
2018-12-24T23:35:45.038Z,-80
2018-12-24T23:38:56.516Z,-79
2018-12-24T23:41:41.471Z,-79
2018-12-24T23:44:33.558Z,-79
2018-12-24T23:47:17.220Z,-79
2018-12-24T23:50:08.177Z,-80
2018-12-24T23:52:53.048Z,-79
2018-12-24T23:55:45.002Z,-79
2018-12-24T23:58:48.543Z,-79
